Time;durP1;ratioP1;P1;durP2;ratioP2;P2;SDS_P1;SDS_P2;PMS_P1;PMS_P2;Temp;Humidity;BMP_temperature;BMP_pressure;BME280_temperature;BME280_humidity;BME280_pressure;Samples;Min_cycle;Max_cycle;Signal;HPM_P1;HPM_P2
2021/06/09 00:00:17;;;;;;;9.38;8.38;;;22.90;56.00;;;;;;1481191;40;20300;-61
2021/06/09 00:01:38;;;;;;;9.95;9.05;;;22.90;55.50;;;;;;1479456;40;20040;-60
2021/06/09 00:02:59;;;;;;;9.90;8.90;;;22.90;55.60;;;;;;1477150;40;20029;-61
2021/06/09 00:04:20;;;;;;;10.38;9.38;;;22.80;55.60;;;;;;1481001;40;20126;-61
2021/06/09 00:05:41;;;;;;;10.10;9.20;;;22.80;55.70;;;;;;1481630;40;20057;-61
2021/06/09 00:07:02;;;;;;;10.02;9.02;;;22.80;55.70;;;;;;1479622;40;20040;-61
2021/06/09 00:08:23;;;;;;;11.95;10.45;;;22.80;55.80;;;;;;1480260;40;20078;-61
2021/06/09 00:09:44;;;;;;;10.48;9.45;;;22.80;55.70;;;;;;1482004;40;20159;-61
2021/06/09 00:11:05;;;;;;;11.23;10.05;;;22.80;55.70;;;;;;1482169;40;20028;-61
2021/06/09 00:12:26;;;;;;;10.60;9.50;;;22.70;55.80;;;;;;1481612;40;20013;-61
2021/06/09 00:13:47;;;;;;;10.68;9.68;;;22.70;55.70;;;;;;1480953;40;20024;-61
2021/06/09 00:15:11;;;;;;;10.60;9.35;;;22.70;55.80;;;;;;1478744;40;20041;-60
2021/06/09 00:16:33;;;;;;;10.13;9.13;;;22.70;56.00;;;;;;1479284;40;20102;-60
2021/06/09 00:17:54;;;;;;;10.43;9.43;;;22.70;56.00;;;;;;1479361;40;20029;-60
2021/06/09 00:19:16;;;;;;;10.48;9.48;;;22.70;56.00;;;;;;1479972;40;20036;-61
2021/06/09 00:20:37;;;;;;;10.82;9.77;;;22.70;56.00;;;;;;1482298;40;20357;-60
2021/06/09 00:21:58;;;;;;;12.05;10.00;;;22.70;56.00;;;;;;1482099;40;20052;-61
2021/06/09 00:23:20;;;;;;;10.48;9.52;;;22.60;56.00;;;;;;1483043;40;20025;-61
2021/06/09 00:24:41;;;;;;;10.65;9.70;;;22.60;56.10;;;;;;1482952;40;20117;-59
2021/06/09 00:26:05;;;;;;;11.02;10.02;;;22.60;56.10;;;;;;1476006;40;20021;-59
2021/06/09 00:27:26;;;;;;;11.57;10.48;;;22.60;56.20;;;;;;1480584;40;20021;-61
2021/06/09 00:28:48;;;;;;;12.35;11.07;;;22.60;56.20;;;;;;1481452;40;20037;-58
2021/06/09 00:30:10;;;;;;;11.35;10.35;;;22.50;56.00;;;;;;1480591;40;20585;-59
2021/06/09 00:31:31;;;;;;;12.05;10.95;;;22.50;56.10;;;;;;1480158;40;20282;-59
2021/06/09 00:32:51;;;;;;;11.27;10.18;;;22.50;56.10;;;;;;1480337;40;20021;-61
2021/06/09 00:34:13;;;;;;;12.70;11.43;;;22.50;56.20;;;;;;1479405;40;20037;-61
2021/06/09 00:35:34;;;;;;;12.35;11.15;;;22.50;56.20;;;;;;1478901;40;20367;-61
2021/06/09 00:36:54;;;;;;;12.15;11.05;;;22.50;56.30;;;;;;1482070;40;20028;-60
2021/06/09 00:38:15;;;;;;;11.13;10.02;;;22.50;56.40;;;;;;1480976;40;20061;-61
2021/06/09 00:39:36;;;;;;;12.10;11.00;;;22.40;56.40;;;;;;1482462;40;20025;-61
2021/06/09 00:40:58;;;;;;;12.05;10.63;;;22.40;56.50;;;;;;1480485;40;20033;-61
2021/06/09 00:42:21;;;;;;;12.80;11.50;;;22.40;57.00;;;;;;1480705;40;20041;-60
2021/06/09 00:43:42;;;;;;;12.77;10.93;;;22.40;56.40;;;;;;1480900;40;20049;-60
2021/06/09 00:45:05;;;;;;;12.68;11.13;;;22.40;56.30;;;;;;1478299;40;20025;-61
2021/06/09 00:46:37;;;;;;;11.90;10.45;;;22.30;56.30;;;;;;1481089;40;20029;-61
2021/06/09 00:47:58;;;;;;;12.18;10.98;;;22.30;56.60;;;;;;1481250;40;20111;-60
2021/06/09 00:49:19;;;;;;;11.43;10.38;;;22.30;56.40;;;;;;1479889;40;20083;-61
2021/06/09 00:50:41;;;;;;;11.43;10.32;;;22.30;56.50;;;;;;1481887;40;20039;-60
2021/06/09 00:52:02;;;;;;;12.90;11.70;;;22.30;56.40;;;;;;1482086;40;20032;-61
2021/06/09 00:53:58;;;;;;;12.35;11.15;;;22.30;56.40;;;;;;1481778;40;20032;-60
2021/06/09 00:55:11;;;;;;;12.70;11.43;;;22.20;56.40;;;;;;1481664;40;20033;-60
2021/06/09 00:56:37;;;;;;;13.27;11.98;;;22.20;56.30;;;;;;1480829;40;20048;-61
2021/06/09 00:57:58;;;;;;;11.95;10.85;;;22.20;56.40;;;;;;1479128;40;20406;-61
2021/06/09 00:59:20;;;;;;;12.45;11.25;;;22.20;56.40;;;;;;1480412;40;20029;-60
2021/06/09 01:00:42;;;;;;;13.30;11.73;;;22.20;56.60;;;;;;1480576;40;20043;-60
2021/06/09 01:02:04;;;;;;;12.65;11.48;;;22.20;56.70;;;;;;1479493;40;20035;-61
2021/06/09 01:03:25;;;;;;;12.93;11.73;;;22.20;56.60;;;;;;1482000;40;20396;-61
2021/06/09 01:04:46;;;;;;;13.10;11.90;;;22.20;56.50;;;;;;1479153;40;20046;-60
2021/06/09 01:06:07;;;;;;;12.57;11.38;;;22.20;56.60;;;;;;1482792;40;20036;-61
2021/06/09 01:07:28;;;;;;;11.80;10.70;;;22.20;56.70;;;;;;1480061;40;20118;-61
2021/06/09 01:08:51;;;;;;;12.75;11.57;;;22.10;56.80;;;;;;1481920;40;20114;-61
2021/06/09 01:10:12;;;;;;;12.65;11.32;;;22.10;56.80;;;;;;1480913;40;20040;-61
2021/06/09 01:11:33;;;;;;;12.73;11.43;;;22.10;56.90;;;;;;1482439;40;20036;-60
2021/06/09 01:12:57;;;;;;;12.13;10.95;;;22.10;56.90;;;;;;1479953;40;20626;-60
2021/06/09 01:14:17;;;;;;;12.10;10.90;;;22.10;57.10;;;;;;1481091;40;20342;-60
2021/06/09 01:15:39;;;;;;;12.20;10.32;;;22.10;57.00;;;;;;1481209;40;20029;-60
2021/06/09 01:17:00;;;;;;;11.65;10.50;;;22.10;57.00;;;;;;1479723;40;20099;-60
2021/06/09 01:18:22;;;;;;;11.63;10.52;;;22.10;57.10;;;;;;1478280;40;20041;-60
2021/06/09 01:19:42;;;;;;;12.40;11.23;;;22.10;57.10;;;;;;1479786;40;20033;-60
2021/06/09 01:21:04;;;;;;;11.90;10.80;;;22.10;57.20;;;;;;1480101;40;20041;-60
2021/06/09 01:22:25;;;;;;;12.23;11.13;;;22.10;57.20;;;;;;1480245;40;20528;-60
2021/06/09 01:23:46;;;;;;;13.02;11.73;;;22.00;57.10;;;;;;1476301;40;20072;-61
2021/06/09 01:25:09;;;;;;;12.70;11.40;;;22.00;57.20;;;;;;1479289;40;20044;-59
2021/06/09 01:26:31;;;;;;;12.23;10.57;;;22.00;57.40;;;;;;1480505;40;20028;-59
2021/06/09 01:27:53;;;;;;;11.93;10.77;;;22.00;57.30;;;;;;1480472;40;20040;-60
2021/06/09 01:29:14;;;;;;;12.32;11.10;;;22.00;57.40;;;;;;1480564;40;20091;-60
2021/06/09 01:30:36;;;;;;;12.23;11.02;;;22.00;57.30;;;;;;1482680;40;20036;-60
2021/06/09 01:31:58;;;;;;;11.93;10.73;;;22.00;57.40;;;;;;1481335;40;20714;-60
2021/06/09 01:33:20;;;;;;;12.25;11.05;;;21.90;57.40;;;;;;1481774;40;20645;-60
2021/06/09 01:34:40;;;;;;;12.60;11.32;;;21.90;57.40;;;;;;1479565;40;20557;-60
2021/06/09 01:36:02;;;;;;;12.32;11.13;;;21.90;57.20;;;;;;1480188;40;20032;-60
2021/06/09 01:37:23;;;;;;;12.70;11.18;;;21.90;57.20;;;;;;1475469;40;20028;-59
2021/06/09 01:38:43;;;;;;;14.00;11.70;;;21.90;57.20;;;;;;1479928;40;20035;-60
2021/06/09 01:40:08;;;;;;;13.30;12.00;;;21.90;57.30;;;;;;1481673;40;20035;-59
2021/06/09 01:41:29;;;;;;;13.43;12.02;;;21.80;57.40;;;;;;1482333;40;20032;-59
2021/06/09 01:42:52;;;;;;;13.38;12.07;;;21.80;57.50;;;;;;1481485;40;20040;-60
2021/06/09 01:44:13;;;;;;;13.95;12.48;;;21.80;57.50;;;;;;1479842;40;20080;-60
2021/06/09 01:45:36;;;;;;;13.40;12.00;;;21.80;57.60;;;;;;1481245;40;20114;-59
2021/06/09 01:46:57;;;;;;;14.55;13.07;;;21.70;57.60;;;;;;1475271;40;20064;-59
2021/06/09 01:48:18;;;;;;;14.90;13.32;;;21.70;57.50;;;;;;1480419;40;20029;-60
2021/06/09 01:49:40;;;;;;;15.43;13.55;;;21.70;57.60;;;;;;1478200;40;20293;-60
2021/06/09 01:51:01;;;;;;;15.57;14.13;;;21.70;57.70;;;;;;1480251;40;20032;-60
2021/06/09 01:52:22;;;;;;;15.18;13.55;;;21.70;57.80;;;;;;1481009;40;20021;-60
2021/06/09 01:53:43;;;;;;;14.30;12.90;;;21.70;57.80;;;;;;1481963;40;20043;-59
2021/06/09 01:55:07;;;;;;;14.50;12.95;;;21.60;57.80;;;;;;1480808;40;20458;-59
2021/06/09 01:56:28;;;;;;;14.35;12.95;;;21.60;58.00;;;;;;1481174;40;20270;-59
2021/06/09 01:57:50;;;;;;;15.50;13.90;;;21.60;58.10;;;;;;1482041;40;20040;-60
2021/06/09 01:59:19;;;;;;;14.63;13.23;;;21.60;58.10;;;;;;1479081;40;20375;-60
2021/06/09 02:00:43;;;;;;;14.38;12.98;;;21.60;58.20;;;;;;1479665;40;20347;-59
2021/06/09 02:02:04;;;;;;;15.48;13.93;;;21.60;58.10;;;;;;1480727;40;20052;-60
2021/06/09 02:03:25;;;;;;;15.20;13.70;;;21.60;58.10;;;;;;1479902;40;20029;-59
2021/06/09 02:04:46;;;;;;;14.10;12.77;;;21.60;58.10;;;;;;1480009;40;20270;-60
2021/06/09 02:06:07;;;;;;;14.55;12.85;;;21.60;58.20;;;;;;1479793;40;20130;-60
2021/06/09 02:07:34;;;;;;;15.68;14.07;;;21.50;58.20;;;;;;1482649;40;20055;-60
2021/06/09 02:08:55;;;;;;;14.32;12.93;;;21.50;58.50;;;;;;1481619;40;20045;-59
2021/06/09 02:10:18;;;;;;;14.77;13.35;;;21.50;58.40;;;;;;1478868;40;20114;-60
2021/06/09 02:11:41;;;;;;;14.50;12.80;;;21.50;58.50;;;;;;1479564;40;20096;-59
2021/06/09 02:13:06;;;;;;;14.52;13.13;;;21.50;58.50;;;;;;1478987;40;20048;-60
2021/06/09 02:14:27;;;;;;;14.13;12.77;;;21.50;58.50;;;;;;1478975;40;20033;-59
2021/06/09 02:15:53;;;;;;;14.10;12.70;;;21.50;58.40;;;;;;1478263;40;20033;-60
2021/06/09 02:17:14;;;;;;;15.63;14.07;;;21.50;58.50;;;;;;1481522;40;20040;-60
2021/06/09 02:18:38;;;;;;;17.88;15.05;;;21.50;58.30;;;;;;1479196;40;20028;-59
2021/06/09 02:19:59;;;;;;;16.35;14.75;;;21.50;58.40;;;;;;1481967;40;20041;-59
2021/06/09 02:21:20;;;;;;;15.50;13.88;;;21.40;58.30;;;;;;1480933;40;20053;-59
2021/06/09 02:22:41;;;;;;;16.70;15.00;;;21.50;58.40;;;;;;1479213;40;20033;-60
2021/06/09 02:24:04;;;;;;;16.35;14.65;;;21.40;58.40;;;;;;1481046;40;20045;-59
2021/06/09 02:25:27;;;;;;;18.40;15.18;;;21.40;58.30;;;;;;1480903;40;20348;-60
2021/06/09 02:26:49;;;;;;;17.05;14.77;;;21.40;58.10;;;;;;1479402;40;20051;-59
2021/06/09 02:28:10;;;;;;;16.08;14.43;;;21.40;58.10;;;;;;1481408;40;20093;-59
2021/06/09 02:29:31;;;;;;;16.52;14.82;;;21.40;58.00;;;;;;1480103;40;20036;-59
2021/06/09 02:30:53;;;;;;;16.42;14.75;;;21.40;58.10;;;;;;1478274;40;20029;-59
2021/06/09 02:32:18;;;;;;;17.92;15.35;;;21.30;58.20;;;;;;1476042;40;20057;-61
2021/06/09 02:33:39;;;;;;;17.50;15.40;;;21.30;58.30;;;;;;1479317;40;20063;-61
2021/06/09 02:35:00;;;;;;;17.17;15.48;;;21.30;58.20;;;;;;1479478;40;20037;-61
2021/06/09 02:36:21;;;;;;;17.00;15.00;;;21.30;58.20;;;;;;1479386;40;20326;-61
2021/06/09 02:37:44;;;;;;;17.75;15.05;;;21.30;58.20;;;;;;1481622;40;20025;-61
2021/06/09 02:39:04;;;;;;;18.67;15.65;;;21.30;58.30;;;;;;1479022;40;20073;-60
2021/06/09 02:40:25;;;;;;;17.70;15.60;;;21.30;58.30;;;;;;1479402;40;20448;-61
2021/06/09 02:41:48;;;;;;;17.05;15.27;;;21.30;58.40;;;;;;1481969;40;20133;-61
2021/06/09 02:43:09;;;;;;;18.17;15.18;;;21.20;58.50;;;;;;1479158;40;20409;-61
2021/06/09 02:44:30;;;;;;;17.77;15.88;;;21.20;58.50;;;;;;1481077;40;20111;-62
2021/06/09 02:45:54;;;;;;;16.92;15.13;;;21.20;58.50;;;;;;1478258;40;20039;-61
2021/06/09 02:47:17;;;;;;;17.05;15.23;;;21.20;58.70;;;;;;1476409;40;20081;-61
2021/06/09 02:48:42;;;;;;;16.90;15.20;;;21.20;58.70;;;;;;1481006;40;20033;-60
2021/06/09 02:50:04;;;;;;;17.58;15.82;;;21.20;58.70;;;;;;1479900;40;20033;-60
2021/06/09 02:51:30;;;;;;;18.15;15.35;;;21.20;58.70;;;;;;1477930;40;20030;-60
2021/06/09 02:53:09;;;;;;;19.23;16.45;;;21.20;58.70;;;;;;1482717;39;20137;-61
2021/06/09 02:54:48;;;;;;;18.02;16.05;;;21.20;59.00;;;;;;1477023;40;20042;-60
2021/06/09 02:56:15;;;;;;;16.48;14.13;;;21.20;58.80;;;;;;1478760;40;20021;-61
2021/06/09 02:57:48;;;;;;;16.80;15.13;;;21.20;58.70;;;;;;1480188;40;20048;-61
2021/06/09 02:59:18;;;;;;;17.58;15.18;;;21.20;58.80;;;;;;1481550;40;20122;-60
2021/06/09 03:01:19;;;;;;;17.48;14.70;;;21.20;58.80;;;;;;1475889;40;20032;-61
2021/06/09 03:03:07;;;;;;;15.52;13.98;;;21.20;58.90;;;;;;1477846;40;20033;-61
2021/06/09 03:04:34;;;;;;;15.48;13.88;;;21.20;59.00;;;;;;1479510;40;20283;-60
2021/06/09 03:06:14;;;;;;;15.52;13.77;;;21.20;58.60;;;;;;1475257;40;20143;-60
2021/06/09 03:08:06;;;;;;;15.68;14.07;;;21.20;58.80;;;;;;1480136;40;20377;-61
2021/06/09 03:09:33;;;;;;;15.57;13.02;;;21.20;59.10;;;;;;1481399;40;20127;-60
2021/06/09 03:11:21;;;;;;;14.85;13.35;;;21.20;58.70;;;;;;1481660;40;20084;-61
2021/06/09 03:12:54;;;;;;;14.52;13.02;;;21.10;58.90;;;;;;1480424;40;20048;-60
2021/06/09 03:15:09;;;;;;;15.25;13.50;;;21.10;58.80;;;;;;1479563;40;20041;-60
2021/06/09 03:16:14;;;;;;;14.13;12.73;;;21.10;58.80;;;;;;1475741;40;20040;-61
2021/06/09 03:17:43;;;;;;;14.63;13.23;;;21.10;58.60;;;;;;1475459;40;20049;-61
2021/06/09 03:19:09;;;;;;;15.40;13.77;;;21.10;58.60;;;;;;1477011;40;20056;-60
2021/06/09 03:21:09;;;;;;;14.90;13.40;;;21.10;58.70;;;;;;1472258;40;20123;-61
2021/06/09 03:22:44;;;;;;;14.85;12.90;;;21.00;58.90;;;;;;1477505;40;20117;-61
2021/06/09 03:24:43;;;;;;;14.63;13.13;;;21.00;58.90;;;;;;1477409;40;20045;-61
2021/06/09 03:26:12;;;;;;;14.98;13.48;;;21.00;58.90;;;;;;1465270;40;20027;-61
2021/06/09 03:27:53;;;;;;;14.98;13.48;;;21.00;59.00;;;;;;1463022;40;20041;-60
2021/06/09 03:29:35;;;;;;;15.23;13.65;;;21.00;58.80;;;;;;1475888;40;20410;-61
2021/06/09 03:31:02;;;;;;;14.27;12.85;;;21.00;59.10;;;;;;1472756;40;20049;-60
2021/06/09 03:32:27;;;;;;;15.85;14.20;;;21.00;58.90;;;;;;1474963;40;20044;-60
2021/06/09 03:33:52;;;;;;;15.13;13.55;;;21.00;58.90;;;;;;1477112;40;20048;-60
2021/06/09 03:35:18;;;;;;;15.15;13.65;;;21.00;58.90;;;;;;1475488;40;20035;-60
2021/06/09 03:36:41;;;;;;;15.80;14.15;;;20.90;59.20;;;;;;1475895;40;20061;-59
2021/06/09 03:38:06;;;;;;;16.27;14.68;;;20.90;59.20;;;;;;1476057;40;20037;-59
2021/06/09 03:39:29;;;;;;;15.95;14.25;;;20.90;59.40;;;;;;1476085;40;20027;-60
2021/06/09 03:40:57;;;;;;;15.48;13.88;;;20.90;59.50;;;;;;1475555;40;20065;-60
2021/06/09 03:42:20;;;;;;;16.20;14.60;;;20.90;59.80;;;;;;1475582;40;20065;-59
2021/06/09 03:43:46;;;;;;;16.77;14.90;;;20.90;59.60;;;;;;1478633;40;20025;-60
2021/06/09 03:45:07;;;;;;;16.98;15.18;;;20.90;59.70;;;;;;1475469;40;20025;-59
2021/06/09 03:46:29;;;;;;;16.08;14.45;;;20.80;59.70;;;;;;1476996;40;20017;-59
2021/06/09 03:47:51;;;;;;;15.27;13.68;;;20.80;59.80;;;;;;1471981;40;20049;-59
2021/06/09 03:49:15;;;;;;;16.30;14.60;;;20.80;59.90;;;;;;1473302;40;20042;-59
2021/06/09 03:50:39;;;;;;;16.70;15.00;;;20.80;59.90;;;;;;1474934;40;20061;-59
2021/06/09 03:52:00;;;;;;;16.13;14.52;;;20.90;59.90;;;;;;1476380;40;20049;-59
2021/06/09 03:53:22;;;;;;;16.48;14.93;;;20.80;59.70;;;;;;1474390;40;20034;-61
2021/06/09 03:54:48;;;;;;;17.40;15.70;;;20.80;59.70;;;;;;1476673;40;20040;-62
2021/06/09 03:56:11;;;;;;;16.67;14.90;;;20.80;59.80;;;;;;1477280;40;20032;-59
2021/06/09 03:57:33;;;;;;;16.70;15.10;;;20.80;59.90;;;;;;1475971;40;20030;-59
2021/06/09 03:58:58;;;;;;;15.75;14.15;;;20.80;59.80;;;;;;1476951;40;20339;-61
2021/06/09 04:00:22;;;;;;;16.35;14.65;;;20.80;59.80;;;;;;1474725;40;20034;-61
2021/06/09 04:01:45;;;;;;;16.52;14.82;;;20.80;59.90;;;;;;1477703;40;20021;-60
2021/06/09 04:03:08;;;;;;;15.02;13.27;;;20.80;60.00;;;;;;1476740;40;20041;-60
2021/06/09 04:04:30;;;;;;;16.33;14.68;;;20.80;60.10;;;;;;1474841;40;20037;-61
2021/06/09 04:05:53;;;;;;;16.65;14.95;;;20.80;60.20;;;;;;1477743;40;20029;-61
2021/06/09 04:07:15;;;;;;;17.05;15.30;;;20.80;60.20;;;;;;1475797;40;20062;-60
2021/06/09 04:08:38;;;;;;;17.08;15.32;;;20.80;60.20;;;;;;1478077;40;20025;-60
2021/06/09 04:10:02;;;;;;;15.38;13.90;;;20.80;60.30;;;;;;1476233;40;20040;-60
2021/06/09 04:11:26;;;;;;;17.02;15.23;;;20.80;60.40;;;;;;1478253;40;20076;-60
2021/06/09 04:12:47;;;;;;;16.67;15.00;;;20.80;60.40;;;;;;1476991;40;20065;-60
2021/06/09 04:14:11;;;;;;;17.25;15.52;;;20.70;60.40;;;;;;1474787;40;20048;-60
2021/06/09 04:15:32;;;;;;;18.08;16.20;;;20.70;60.30;;;;;;1474373;40;20037;-60
2021/06/09 04:16:57;;;;;;;18.05;16.15;;;20.70;60.40;;;;;;1476525;40;20052;-60
2021/06/09 04:18:20;;;;;;;17.95;16.05;;;20.70;60.60;;;;;;1475754;40;20349;-60
2021/06/09 04:19:43;;;;;;;18.65;16.65;;;20.70;60.60;;;;;;1476429;40;20359;-60
2021/06/09 04:21:05;;;;;;;17.67;15.88;;;20.70;60.60;;;;;;1476688;40;20107;-60
2021/06/09 04:22:27;;;;;;;18.48;16.45;;;20.70;60.50;;;;;;1476907;40;20041;-60
2021/06/09 04:23:49;;;;;;;17.30;15.63;;;20.70;60.50;;;;;;1477170;40;20436;-60
2021/06/09 04:25:11;;;;;;;17.88;16.05;;;20.70;60.50;;;;;;1475592;40;20041;-61
2021/06/09 04:26:33;;;;;;;18.65;16.67;;;20.70;60.30;;;;;;1476526;40;20144;-60
2021/06/09 04:27:55;;;;;;;18.67;16.73;;;20.70;60.30;;;;;;1478444;40;20294;-60
2021/06/09 04:29:16;;;;;;;19.55;17.23;;;20.70;60.40;;;;;;1474977;40;20377;-60
2021/06/09 04:30:37;;;;;;;18.77;16.83;;;20.70;60.60;;;;;;1481050;40;20435;-60
2021/06/09 04:31:58;;;;;;;18.30;16.35;;;20.70;60.70;;;;;;1479137;40;20061;-60
2021/06/09 04:33:19;;;;;;;17.20;15.52;;;20.70;60.80;;;;;;1472991;40;20038;-60
2021/06/09 04:34:56;;;;;;;18.38;16.38;;;20.70;60.90;;;;;;1474521;40;20075;-60
2021/06/09 04:36:17;;;;;;;19.02;17.00;;;20.70;61.90;;;;;;1478304;40;20162;-60
2021/06/09 04:37:37;;;;;;;21.38;18.80;;;20.70;60.90;;;;;;1480286;40;20130;-60
2021/06/09 04:38:58;;;;;;;20.42;18.23;;;20.70;61.00;;;;;;1476875;40;20092;-60
2021/06/09 04:40:25;;;;;;;21.00;18.70;;;20.70;60.90;;;;;;1476151;40;20028;-60
2021/06/09 04:41:46;;;;;;;20.38;18.33;;;20.70;62.00;;;;;;1477596;40;20037;-60
2021/06/09 04:43:07;;;;;;;20.38;18.02;;;20.70;61.10;;;;;;1478297;40;20053;-60
2021/06/09 04:44:28;;;;;;;19.45;17.33;;;20.70;61.10;;;;;;1475433;40;20014;-60
2021/06/09 04:45:49;;;;;;;21.25;18.88;;;20.70;61.10;;;;;;1476636;40;20025;-60
2021/06/09 04:47:11;;;;;;;26.05;21.20;;;20.70;61.10;;;;;;1477573;40;20058;-61
2021/06/09 04:48:32;;;;;;;24.13;21.52;;;20.70;61.10;;;;;;1476764;40;20038;-60
2021/06/09 04:49:53;;;;;;;28.20;23.35;;;20.70;61.00;;;;;;1478068;40;20062;-60
2021/06/09 04:51:14;;;;;;;26.65;23.17;;;20.70;60.90;;;;;;1477973;40;20037;-60
2021/06/09 04:52:35;;;;;;;25.48;22.70;;;20.70;60.90;;;;;;1477123;40;20369;-60
2021/06/09 04:53:57;;;;;;;27.92;25.00;;;20.70;61.10;;;;;;1475990;40;20032;-60
2021/06/09 04:55:19;;;;;;;27.23;24.42;;;20.70;61.00;;;;;;1477353;40;20021;-60
2021/06/09 04:56:40;;;;;;;27.00;24.10;;;20.70;60.90;;;;;;1477099;40;20041;-60
2021/06/09 04:58:01;;;;;;;26.90;24.15;;;20.70;60.90;;;;;;1474701;40;20052;-60
2021/06/09 04:59:22;;;;;;;28.23;24.98;;;20.70;60.90;;;;;;1475367;40;20321;-60
2021/06/09 05:00:45;;;;;;;26.52;23.67;;;20.70;60.90;;;;;;1475118;40;20034;-59
2021/06/09 05:02:05;;;;;;;25.85;23.05;;;20.70;61.00;;;;;;1479577;40;20036;-60
2021/06/09 05:03:26;;;;;;;26.60;22.70;;;20.80;61.20;;;;;;1476002;40;20082;-60
2021/06/09 05:04:47;;;;;;;25.70;22.92;;;20.80;61.40;;;;;;1474502;40;20282;-60
2021/06/09 05:06:08;;;;;;;25.70;22.83;;;20.70;61.30;;;;;;1475695;40;20049;-60
2021/06/09 05:07:29;;;;;;;25.45;22.73;;;20.80;61.40;;;;;;1474732;40;20079;-60
2021/06/09 05:08:50;;;;;;;27.08;23.55;;;20.80;61.50;;;;;;1475013;40;20041;-60
2021/06/09 05:10:12;;;;;;;28.88;24.75;;;20.80;61.50;;;;;;1477362;40;20389;-61
2021/06/09 05:11:41;;;;;;;27.85;24.60;;;20.80;61.60;;;;;;1475839;40;20034;-60
2021/06/09 05:13:07;;;;;;;29.73;25.83;;;20.80;61.70;;;;;;1473627;40;20342;-60
2021/06/09 05:14:34;;;;;;;30.40;25.35;;;20.80;61.70;;;;;;1476668;40;20065;-60
2021/06/09 05:16:00;;;;;;;31.92;27.15;;;20.90;61.60;;;;;;1474410;40;20054;-60
2021/06/09 05:17:26;;;;;;;35.63;29.33;;;20.90;61.50;;;;;;1475122;40;20033;-60
2021/06/09 05:18:58;;;;;;;35.35;30.23;;;20.90;61.40;;;;;;1474901;40;20563;-60
2021/06/09 05:20:24;;;;;;;33.80;28.48;;;20.90;61.30;;;;;;1472783;40;20048;-60
2021/06/09 05:22:06;;;;;;;36.67;28.67;;;20.90;61.00;;;;;;1471526;40;20271;-60
2021/06/09 05:23:48;;;;;;;34.55;29.20;;;20.90;61.20;;;;;;1476545;40;20307;-60
2021/06/09 05:25:25;;;;;;;37.50;29.98;;;21.00;61.10;;;;;;1474673;40;20052;-60
2021/06/09 05:26:48;;;;;;;32.83;29.13;;;21.00;61.00;;;;;;1475078;40;20037;-60
2021/06/09 05:28:12;;;;;;;34.10;29.73;;;21.00;60.90;;;;;;1476203;40;20730;-60
2021/06/09 05:29:34;;;;;;;40.40;33.00;;;21.00;60.80;;;;;;1472244;40;20477;-60
2021/06/09 05:30:57;;;;;;;40.05;32.22;;;21.00;60.80;;;;;;1475486;40;20041;-60
2021/06/09 05:32:19;;;;;;;38.70;33.78;;;21.00;60.80;;;;;;1477965;40;20034;-60
2021/06/09 05:33:42;;;;;;;40.47;34.72;;;21.00;60.80;;;;;;1476505;40;20040;-60
2021/06/09 05:35:05;;;;;;;42.05;35.38;;;21.00;60.80;;;;;;1476908;40;20042;-60
2021/06/09 05:36:28;;;;;;;44.00;36.17;;;21.00;60.90;;;;;;1475374;40;20110;-60
2021/06/09 05:37:50;;;;;;;42.33;36.97;;;21.00;60.90;;;;;;1475827;40;20034;-60
2021/06/09 05:39:13;;;;;;;42.72;36.33;;;21.10;60.90;;;;;;1475123;40;20041;-60
2021/06/09 05:40:35;;;;;;;41.08;35.63;;;21.10;60.90;;;;;;1476595;40;20034;-60
2021/06/09 05:41:56;;;;;;;41.55;35.63;;;21.10;60.90;;;;;;1476765;40;20163;-61
2021/06/09 05:43:21;;;;;;;43.53;35.83;;;21.10;60.90;;;;;;1474613;40;20243;-60
2021/06/09 05:44:48;;;;;;;40.63;34.85;;;21.10;61.10;;;;;;1475331;40;20029;-60
2021/06/09 05:46:10;;;;;;;44.60;34.92;;;21.10;60.90;;;;;;1477719;40;20038;-61
2021/06/09 05:47:31;;;;;;;44.05;35.40;;;21.10;61.10;;;;;;1476413;40;20029;-60
2021/06/09 05:48:52;;;;;;;42.92;36.10;;;21.10;60.80;;;;;;1472859;40;20037;-61
2021/06/09 05:50:21;;;;;;;46.30;36.05;;;21.20;60.90;;;;;;1476208;40;20173;-61
2021/06/09 05:51:42;;;;;;;41.30;33.80;;;21.20;61.00;;;;;;1476569;40;20030;-60
2021/06/09 05:53:04;;;;;;;39.72;34.60;;;21.20;60.90;;;;;;1475172;40;20049;-60
2021/06/09 05:54:36;;;;;;;44.08;33.58;;;21.20;61.00;;;;;;1477744;40;20031;-61
2021/06/09 05:55:57;;;;;;;39.72;32.42;;;21.20;61.20;;;;;;1476979;40;20045;-60
2021/06/09 05:57:18;;;;;;;40.92;33.35;;;21.20;61.10;;;;;;1476233;40;20287;-61
2021/06/09 05:58:40;;;;;;;42.97;33.75;;;21.30;61.20;;;;;;1475929;40;20043;-61
2021/06/09 06:00:01;;;;;;;38.97;32.15;;;21.30;61.20;;;;;;1475912;40;20037;-60
2021/06/09 06:01:22;;;;;;;41.75;33.60;;;21.30;61.30;;;;;;1477457;40;20281;-61
2021/06/09 06:02:44;;;;;;;39.20;34.13;;;21.30;61.30;;;;;;1474699;40;20294;-60
2021/06/09 06:04:06;;;;;;;42.03;32.95;;;21.30;61.20;;;;;;1475175;40;20131;-61
2021/06/09 06:05:28;;;;;;;38.92;34.70;;;21.40;61.30;;;;;;1476353;40;20017;-60
2021/06/09 06:06:49;;;;;;;37.47;32.72;;;21.40;61.30;;;;;;1477269;40;20062;-60
2021/06/09 06:08:10;;;;;;;37.80;30.80;;;21.40;61.30;;;;;;1475937;40;20033;-60
2021/06/09 06:09:32;;;;;;;44.05;33.75;;;21.50;61.40;;;;;;1476679;40;20060;-61
2021/06/09 06:10:54;;;;;;;38.42;32.97;;;21.50;61.40;;;;;;1475113;40;20045;-61
2021/06/09 06:12:15;;;;;;;36.08;32.22;;;21.50;61.50;;;;;;1475579;40;20022;-61
2021/06/09 06:13:37;;;;;;;36.00;32.10;;;21.50;61.50;;;;;;1476825;40;20044;-61
2021/06/09 06:14:58;;;;;;;38.67;32.00;;;21.60;61.60;;;;;;1477575;40;20267;-60
2021/06/09 06:16:21;;;;;;;35.90;31.98;;;21.60;61.50;;;;;;1476047;40;20228;-61
2021/06/09 06:17:44;;;;;;;35.40;31.40;;;21.60;61.50;;;;;;1477233;40;20029;-61
2021/06/09 06:19:05;;;;;;;36.22;31.05;;;21.70;61.50;;;;;;1478709;40;20291;-61
2021/06/09 06:20:26;;;;;;;35.45;31.77;;;21.70;61.50;;;;;;1480816;40;20049;-59
2021/06/09 06:21:48;;;;;;;36.20;31.00;;;21.80;61.60;;;;;;1479137;40;20087;-59
2021/06/09 06:23:09;;;;;;;33.28;29.63;;;21.80;61.60;;;;;;1476504;40;20034;-60
2021/06/09 06:24:30;;;;;;;33.40;28.65;;;21.80;61.70;;;;;;1478728;40;20033;-60
2021/06/09 06:25:53;;;;;;;34.22;30.55;;;21.80;61.60;;;;;;1480987;40;20032;-60
2021/06/09 06:27:16;;;;;;;34.25;30.60;;;21.90;61.60;;;;;;1474179;40;20034;-59
2021/06/09 06:28:40;;;;;;;32.20;28.73;;;21.90;61.60;;;;;;1478661;40;20289;-60
2021/06/09 06:30:03;;;;;;;33.40;29.80;;;22.00;61.70;;;;;;1480673;40;20033;-60
2021/06/09 06:31:25;;;;;;;33.25;28.77;;;22.00;61.50;;;;;;1478903;40;20017;-59
2021/06/09 06:32:49;;;;;;;32.65;28.25;;;22.00;61.30;;;;;;1479392;40;20126;-60
2021/06/09 06:34:12;;;;;;;34.20;30.50;;;22.10;61.10;;;;;;1479136;40;20037;-59
2021/06/09 06:35:33;;;;;;;33.65;29.83;;;22.10;60.90;;;;;;1480294;40;20021;-59
2021/06/09 06:36:56;;;;;;;34.50;30.55;;;22.20;61.00;;;;;;1481207;39;20041;-59
2021/06/09 06:38:19;;;;;;;32.92;29.48;;;22.20;60.70;;;;;;1480136;40;20039;-59
2021/06/09 06:39:41;;;;;;;36.90;32.90;;;22.30;60.40;;;;;;1481658;40;20016;-59
2021/06/09 06:41:03;;;;;;;34.17;30.15;;;22.30;60.20;;;;;;1482173;40;20033;-59
2021/06/09 06:42:24;;;;;;;36.25;30.92;;;22.30;60.00;;;;;;1481139;40;20033;-59
2021/06/09 06:43:45;;;;;;;35.22;30.25;;;22.40;59.90;;;;;;1476753;40;20039;-60
2021/06/09 06:45:07;;;;;;;35.78;30.88;;;22.40;59.90;;;;;;1477930;40;20037;-60
2021/06/09 06:46:28;;;;;;;34.03;28.85;;;22.40;59.90;;;;;;1474169;40;20028;-60
2021/06/09 06:47:51;;;;;;;31.30;27.92;;;22.50;59.80;;;;;;1477792;40;20045;-60
2021/06/09 06:49:12;;;;;;;32.53;28.85;;;22.50;59.70;;;;;;1478651;40;20362;-61
2021/06/09 06:50:34;;;;;;;32.72;29.02;;;22.50;59.50;;;;;;1480093;40;20408;-60
2021/06/09 06:51:56;;;;;;;32.60;27.80;;;22.50;59.20;;;;;;1480812;40;20024;-61
2021/06/09 06:53:18;;;;;;;29.88;26.70;;;22.60;59.10;;;;;;1480108;40;20029;-60
2021/06/09 06:54:39;;;;;;;30.85;27.55;;;22.60;59.20;;;;;;1480235;40;20021;-61
2021/06/09 06:56:01;;;;;;;31.15;27.80;;;22.70;59.20;;;;;;1479231;40;20028;-61
2021/06/09 06:57:22;;;;;;;34.00;29.95;;;22.70;59.20;;;;;;1477688;40;20017;-60
2021/06/09 06:58:48;;;;;;;31.65;28.25;;;22.70;59.00;;;;;;1482358;40;20078;-61
2021/06/09 07:00:12;;;;;;;30.83;27.55;;;22.70;59.10;;;;;;1479522;40;20033;-60
2021/06/09 07:01:35;;;;;;;32.80;28.27;;;22.80;59.10;;;;;;1478777;40;20061;-60
2021/06/09 07:02:59;;;;;;;30.95;27.15;;;22.80;59.20;;;;;;1478412;40;20041;-60
2021/06/09 07:04:21;;;;;;;32.08;28.52;;;22.80;59.30;;;;;;1478587;40;20059;-60
2021/06/09 07:05:42;;;;;;;33.28;28.38;;;22.90;59.40;;;;;;1479681;40;20032;-60